createdAt,value
2019-02-06T00:03:24.912Z,3.34
2019-02-06T00:08:30.003Z,3.39
2019-02-06T00:13:35.276Z,3.29
2019-02-06T00:18:40.361Z,3.31
2019-02-06T00:23:45.464Z,3.29
2019-02-06T00:28:50.893Z,3.24
2019-02-06T00:33:55.946Z,3.23
2019-02-06T00:39:00.997Z,3.24
2019-02-06T00:44:08.064Z,3.33
2019-02-06T00:49:13.262Z,3.28
2019-02-06T00:54:20.546Z,3.19
2019-02-06T00:59:25.823Z,3.20
2019-02-06T01:04:30.841Z,3.20
2019-02-06T01:09:35.937Z,3.25
2019-02-06T01:14:41.075Z,3.18
2019-02-06T01:19:46.215Z,3.22
2019-02-06T01:24:51.491Z,3.25
2019-02-06T01:29:56.578Z,3.25
2019-02-06T01:35:01.699Z,3.14
2019-02-06T01:40:08.953Z,3.13
2019-02-06T01:45:15.638Z,3.17
2019-02-06T01:50:20.783Z,3.15
2019-02-06T01:55:26.152Z,3.15
2019-02-06T02:00:31.829Z,3.15
2019-02-06T02:05:37.972Z,3.08
2019-02-06T02:10:43.213Z,2.98
2019-02-06T02:15:48.365Z,2.86
2019-02-06T02:20:54.611Z,2.89
2019-02-06T02:25:59.672Z,2.76
2019-02-06T02:31:04.803Z,2.70
2019-02-06T02:36:15.637Z,2.67
2019-02-06T02:41:17.805Z,2.62
2019-02-06T02:46:22.772Z,2.56
2019-02-06T02:51:28.487Z,2.50
2019-02-06T02:56:33.619Z,2.46
2019-02-06T03:01:50.915Z,2.46
2019-02-06T03:07:05.358Z,2.39
2019-02-06T03:12:10.799Z,2.37
2019-02-06T03:17:15.749Z,2.27
2019-02-06T03:22:22.003Z,2.22
2019-02-06T03:27:27.687Z,2.20
2019-02-06T03:32:32.801Z,2.15
2019-02-06T03:37:38.227Z,2.16
2019-02-06T03:42:43.246Z,2.13
2019-02-06T03:47:48.615Z,2.03
2019-02-06T03:52:56.833Z,1.99
2019-02-06T03:58:01.996Z,1.93
2019-02-06T04:03:07.127Z,1.88
2019-02-06T04:08:12.334Z,1.86
2019-02-06T04:13:17.676Z,1.81
2019-02-06T04:18:23.050Z,1.75
2019-02-06T04:23:28.393Z,1.69
2019-02-06T04:28:33.403Z,1.69
2019-02-06T04:33:39.462Z,1.66
2019-02-06T04:38:44.517Z,1.65
2019-02-06T04:43:49.652Z,1.60
2019-02-06T04:48:54.942Z,1.57
2019-02-06T04:54:01.002Z,1.56
2019-02-06T04:59:06.062Z,1.54
2019-02-06T05:04:12.772Z,1.48
2019-02-06T05:09:20.330Z,1.39
2019-02-06T05:14:25.459Z,1.38
2019-02-06T05:19:30.775Z,1.35
2019-02-06T05:24:37.438Z,1.30
2019-02-06T05:29:45.138Z,1.25
2019-02-06T05:34:50.403Z,1.24
2019-02-06T05:39:55.704Z,1.26
2019-02-06T05:45:00.978Z,1.21
2019-02-06T05:50:13.522Z,1.17
2019-02-06T05:55:19.885Z,1.11
2019-02-06T06:00:31.376Z,1.05
2019-02-06T06:05:36.558Z,1.06
2019-02-06T06:10:42.067Z,1.06
2019-02-06T06:15:47.412Z,0.97
2019-02-06T06:20:54.655Z,0.96
2019-02-06T06:25:59.715Z,0.93
2019-02-06T06:31:04.930Z,0.86
2019-02-06T06:36:10.532Z,0.81
2019-02-06T06:41:15.971Z,0.81
2019-02-06T06:46:21.469Z,0.80
2019-02-06T06:51:26.567Z,0.84
2019-02-06T06:56:31.848Z,0.80
2019-02-06T07:01:37.416Z,0.79
2019-02-06T07:06:42.596Z,0.85
2019-02-06T07:11:48.722Z,0.91
2019-02-06T07:16:53.982Z,0.93
2019-02-06T07:21:59.588Z,0.99
2019-02-06T07:27:05.780Z,1.07
2019-02-06T07:32:16.354Z,1.13
2019-02-06T07:37:22.054Z,1.14
2019-02-06T07:42:27.496Z,1.13
2019-02-06T07:47:41.286Z,1.21
2019-02-06T07:52:52.716Z,1.27
2019-02-06T07:58:05.050Z,1.23
2019-02-06T08:03:22.554Z,1.26
2019-02-06T08:08:36.055Z,1.36
2019-02-06T08:13:38.573Z,1.48
2019-02-06T08:18:43.806Z,1.65
2019-02-06T08:23:52.477Z,1.88
2019-02-06T08:29:01.282Z,2.10
2019-02-06T08:34:12.060Z,2.20
2019-02-06T08:39:20.356Z,2.19
2019-02-06T08:44:26.280Z,2.24
2019-02-06T08:49:31.462Z,2.25
2019-02-06T08:54:45.168Z,2.32
2019-02-06T08:59:52.277Z,2.35
2019-02-06T09:04:58.877Z,2.51
2019-02-06T09:10:08.099Z,2.64
2019-02-06T09:15:17.158Z,2.74
2019-02-06T09:20:24.520Z,2.88
2019-02-06T09:25:40.806Z,3.01
2019-02-06T09:30:46.186Z,3.17
2019-02-06T09:35:52.744Z,3.27
2019-02-06T09:41:04.145Z,3.42
2019-02-06T09:46:17.795Z,3.53
2019-02-06T09:51:46.137Z,3.64
2019-02-06T09:57:09.508Z,3.67
2019-02-06T10:02:18.429Z,3.79
2019-02-06T10:07:24.178Z,3.94
2019-02-06T10:12:35.371Z,4.02
2019-02-06T10:17:40.871Z,4.17
2019-02-06T10:22:52.945Z,4.39
2019-02-06T10:27:58.810Z,4.59
2019-02-06T10:33:19.267Z,4.73
2019-02-06T10:38:44.052Z,5.34
2019-02-06T10:43:53.842Z,6.76
2019-02-06T10:49:04.927Z,7.20
2019-02-06T10:54:14.635Z,7.32
2019-02-06T10:59:23.773Z,7.60
2019-02-06T11:04:31.188Z,8.29
2019-02-06T11:09:45.993Z,10.40
2019-02-06T11:14:46.502Z,10.98
2019-02-06T11:19:51.833Z,12.08
2019-02-06T11:25:04.951Z,13.33
2019-02-06T11:30:13.815Z,14.61
2019-02-06T11:35:30.968Z,13.47
2019-02-06T11:40:58.087Z,13.18
2019-02-06T11:46:11.035Z,13.61
2019-02-06T11:51:16.968Z,14.03
2019-02-06T11:56:22.775Z,14.51
2019-02-06T12:01:32.298Z,14.03
2019-02-06T12:06:37.546Z,14.53
2019-02-06T12:11:48.416Z,14.67
2019-02-06T12:16:55.734Z,14.51
2019-02-06T12:22:01.166Z,15.04
2019-02-06T12:27:07.125Z,14.97
2019-02-06T12:32:24.167Z,14.54
2019-02-06T12:37:32.230Z,13.75
2019-02-06T12:42:38.402Z,13.18
2019-02-06T12:47:44.496Z,13.42
2019-02-06T12:52:50.092Z,13.91
2019-02-06T12:57:57.024Z,14.07
2019-02-06T13:03:02.644Z,13.67
2019-02-06T13:08:09.337Z,13.00
2019-02-06T13:13:14.563Z,13.42
2019-02-06T13:18:24.878Z,13.75
2019-02-06T13:23:31.110Z,13.22
2019-02-06T13:28:36.316Z,13.36
2019-02-06T13:33:44.364Z,13.83
2019-02-06T13:38:49.856Z,14.47
2019-02-06T13:43:57.334Z,14.82
2019-02-06T13:49:02.792Z,15.51
2019-02-06T13:54:07.764Z,15.10
2019-02-06T13:59:12.204Z,14.97
2019-02-06T14:04:17.426Z,14.55
2019-02-06T14:09:26.880Z,13.95
2019-02-06T14:14:34.484Z,12.79
2019-02-06T14:19:40.253Z,11.73
2019-02-06T14:25:05.668Z,10.28
2019-02-06T14:30:58.251Z,9.24
2019-02-06T14:36:24.360Z,8.52
2019-02-06T14:41:50.956Z,8.02
2019-02-06T14:47:28.660Z,7.87
2019-02-06T14:53:19.914Z,7.69
2019-02-06T14:59:07.525Z,7.62
2019-02-06T15:04:36.076Z,7.66
2019-02-06T15:10:11.185Z,7.63
2019-02-06T15:15:30.299Z,7.50
2019-02-06T15:20:57.883Z,7.47
2019-02-06T15:26:49.291Z,7.37
2019-02-06T15:32:55.698Z,7.36
2019-02-06T15:38:44.985Z,7.20
2019-02-06T15:44:06.336Z,7.20
2019-02-06T15:49:46.574Z,7.12
2019-02-06T15:55:41.162Z,6.93
2019-02-06T16:01:42.478Z,6.80
2019-02-06T16:07:20.881Z,6.69
2019-02-06T16:12:49.655Z,6.54
2019-02-06T16:18:09.393Z,6.48
2019-02-06T16:23:59.058Z,6.45
2019-02-06T16:30:00.317Z,6.41
2019-02-06T16:35:45.474Z,6.33
2019-02-06T16:41:20.324Z,6.27
2019-02-06T16:47:23.242Z,6.28
2019-02-06T16:53:10.390Z,6.12
2019-02-06T16:58:45.974Z,6.05
2019-02-06T17:04:16.231Z,5.94
2019-02-06T17:10:15.995Z,5.77
2019-02-06T17:16:02.063Z,5.72
2019-02-06T17:21:52.238Z,5.63
2019-02-06T17:27:27.533Z,5.62
2019-02-06T17:33:13.110Z,5.57
2019-02-06T17:39:09.372Z,5.47
2019-02-06T17:44:57.850Z,5.53
2019-02-06T17:50:51.004Z,5.51
2019-02-06T17:56:05.642Z,5.40
2019-02-06T18:01:40.540Z,5.43
2019-02-06T18:06:50.232Z,5.31
2019-02-06T18:12:14.158Z,5.28
2019-02-06T18:17:24.487Z,5.24
2019-02-06T18:22:46.404Z,5.20
2019-02-06T18:27:55.113Z,5.07
2019-02-06T18:33:11.560Z,5.09
2019-02-06T18:38:25.050Z,5.02
2019-02-06T18:43:46.642Z,4.95
2019-02-06T18:48:56.079Z,4.88
2019-02-06T18:54:02.263Z,4.87
2019-02-06T18:59:17.822Z,4.85
2019-02-06T19:05:16.069Z,4.85
2019-02-06T19:10:23.521Z,4.75
2019-02-06T19:15:58.147Z,4.72
2019-02-06T19:21:19.278Z,4.68
2019-02-06T19:26:40.097Z,4.58
2019-02-06T19:31:45.952Z,4.49
2019-02-06T19:37:16.148Z,4.47
2019-02-06T19:42:25.350Z,4.36
2019-02-06T19:47:41.700Z,4.32
2019-02-06T19:53:04.050Z,4.24
2019-02-06T19:58:19.030Z,4.24
2019-02-06T20:03:26.437Z,4.17
2019-02-06T20:08:49.214Z,4.12
2019-02-06T20:14:20.397Z,4.06
2019-02-06T20:19:25.763Z,4.02
2019-02-06T20:24:33.128Z,3.99
2019-02-06T20:29:51.439Z,3.92
2019-02-06T20:35:07.120Z,3.88
2019-02-06T20:40:19.384Z,3.83
2019-02-06T20:45:42.204Z,3.79
2019-02-06T20:50:45.540Z,3.72
2019-02-06T20:55:50.840Z,3.66
2019-02-06T21:01:00.948Z,3.63
2019-02-06T21:06:08.251Z,3.61
2019-02-06T21:11:13.915Z,3.60
2019-02-06T21:16:30.073Z,3.54
2019-02-06T21:21:37.286Z,3.47
2019-02-06T21:26:48.013Z,3.47
2019-02-06T21:31:53.834Z,3.42
2019-02-06T21:36:59.279Z,3.40
2019-02-06T21:42:04.679Z,3.37
2019-02-06T21:47:09.846Z,3.34
2019-02-06T21:52:18.096Z,3.30
2019-02-06T21:57:27.777Z,3.27
2019-02-06T22:02:34.063Z,3.27
2019-02-06T22:07:41.466Z,3.28
2019-02-06T22:12:47.791Z,3.23
2019-02-06T22:17:54.041Z,3.21
2019-02-06T22:23:00.610Z,3.21
2019-02-06T22:28:08.460Z,3.15
2019-02-06T22:33:14.298Z,3.13
2019-02-06T22:38:19.471Z,3.12
2019-02-06T22:43:25.180Z,3.13
2019-02-06T22:48:30.273Z,3.09
2019-02-06T22:53:41.475Z,3.10
2019-02-06T22:58:46.669Z,3.07
2019-02-06T23:03:56.586Z,3.12
2019-02-06T23:09:06.451Z,3.13
2019-02-06T23:14:17.535Z,3.09
2019-02-06T23:19:19.240Z,3.13
2019-02-06T23:24:27.606Z,3.03
2019-02-06T23:29:34.862Z,2.93
2019-02-06T23:34:42.626Z,2.97
2019-02-06T23:39:51.444Z,2.83
2019-02-06T23:44:57.090Z,2.83
2019-02-06T23:50:02.134Z,2.81
2019-02-06T23:55:07.510Z,2.82
